createdAt,value
2022-09-22T00:01:06.171Z,7.70
2022-09-22T00:03:37.658Z,7.60
2022-09-22T00:06:10.608Z,7.60
2022-09-22T00:08:39.882Z,7.60
2022-09-22T00:11:16.824Z,7.50
2022-09-22T00:13:46.652Z,7.50
2022-09-22T00:16:15.587Z,7.50
2022-09-22T00:18:42.427Z,7.40
2022-09-22T00:21:12.588Z,7.40
2022-09-22T00:23:40.619Z,7.30
2022-09-22T00:26:10.399Z,7.30
2022-09-22T00:28:38.655Z,7.20
2022-09-22T00:31:12.468Z,7.20
2022-09-22T00:33:41.359Z,7.20
2022-09-22T00:36:08.797Z,7.10
2022-09-22T00:38:37.127Z,7.10
2022-09-22T00:41:04.906Z,7.10
2022-09-22T00:43:36.453Z,7.00
2022-09-22T00:46:12.508Z,7.00
2022-09-22T00:48:44.640Z,6.90
2022-09-22T00:51:13.360Z,6.90
2022-09-22T00:53:40.229Z,6.80
2022-09-22T00:56:15.001Z,6.80
2022-09-22T00:58:47.580Z,6.80
2022-09-22T01:01:15.880Z,6.70
2022-09-22T01:03:43.886Z,6.70
2022-09-22T01:06:15.025Z,6.70
2022-09-22T01:08:44.600Z,6.60
2022-09-22T01:11:13.311Z,6.60
2022-09-22T01:13:52.053Z,6.60
2022-09-22T01:16:25.455Z,6.50
2022-09-22T01:19:26.396Z,6.50
2022-09-22T01:22:12.553Z,6.50
2022-09-22T01:24:58.923Z,6.40
2022-09-22T01:27:44.414Z,6.40
2022-09-22T01:30:16.450Z,6.30
2022-09-22T01:33:03.361Z,6.30
2022-09-22T01:36:07.370Z,6.20
2022-09-22T01:39:15.942Z,6.20
2022-09-22T01:42:00.559Z,6.20
2022-09-22T01:44:33.955Z,6.10
2022-09-22T01:47:11.079Z,6.00
2022-09-22T01:49:44.079Z,6.00
2022-09-22T01:52:16.712Z,6.00
2022-09-22T01:54:58.360Z,5.90
2022-09-22T01:57:51.377Z,5.90
2022-09-22T02:00:18.390Z,5.90
2022-09-22T02:02:58.066Z,5.90
2022-09-22T02:05:36.854Z,5.80
2022-09-22T02:08:09.996Z,5.80
2022-09-22T02:10:42.054Z,5.80
2022-09-22T02:13:08.814Z,5.80
2022-09-22T02:15:54.196Z,5.70
2022-09-22T02:18:27.481Z,5.70
2022-09-22T02:20:54.160Z,5.70
2022-09-22T02:23:20.860Z,5.60
2022-09-22T02:25:48.929Z,5.60
2022-09-22T02:28:20.251Z,5.50
2022-09-22T02:31:10.541Z,5.50
2022-09-22T02:33:38.518Z,5.50
2022-09-22T02:36:23.336Z,5.50
2022-09-22T02:39:00.045Z,5.40
2022-09-22T02:41:55.152Z,5.40
2022-09-22T02:44:28.773Z,5.30
2022-09-22T02:47:22.512Z,5.30
2022-09-22T02:49:50.962Z,5.30
2022-09-22T02:52:19.971Z,5.30
2022-09-22T02:54:46.786Z,5.20
2022-09-22T02:57:13.441Z,5.20
2022-09-22T02:59:40.137Z,5.20
2022-09-22T03:02:06.823Z,5.20
2022-09-22T03:04:33.536Z,5.10
2022-09-22T03:07:00.224Z,5.10
2022-09-22T03:09:26.883Z,5.10
2022-09-22T03:11:53.544Z,5.10
2022-09-22T03:14:20.169Z,5.00
2022-09-22T03:16:46.905Z,5.00
2022-09-22T03:19:13.530Z,4.90
2022-09-22T03:21:40.224Z,4.90
2022-09-22T03:24:06.976Z,4.90
2022-09-22T03:26:34.766Z,4.90
2022-09-22T03:29:03.384Z,4.90
2022-09-22T03:31:30.028Z,4.90
2022-09-22T03:33:56.782Z,4.90
2022-09-22T03:36:23.578Z,4.80
2022-09-22T03:38:51.929Z,4.80
2022-09-22T03:41:19.487Z,4.80
2022-09-22T03:43:46.140Z,4.80
2022-09-22T03:46:14.197Z,4.70
2022-09-22T03:48:44.952Z,4.70
2022-09-22T03:51:12.218Z,4.70
2022-09-22T03:53:39.026Z,4.70
2022-09-22T03:56:11.381Z,4.70
2022-09-22T03:58:38.957Z,4.70
2022-09-22T04:01:07.250Z,4.70
2022-09-22T04:03:34.921Z,4.70
2022-09-22T04:06:02.278Z,4.60
2022-09-22T04:08:28.952Z,4.60
2022-09-22T04:10:57.666Z,4.60
2022-09-22T04:13:24.357Z,4.60
2022-09-22T04:15:50.986Z,4.60
2022-09-22T04:18:17.653Z,4.50
2022-09-22T04:20:45.199Z,4.50
2022-09-22T04:23:13.202Z,4.40
2022-09-22T04:25:39.858Z,4.40
2022-09-22T04:28:07.108Z,4.40
2022-09-22T04:30:35.213Z,4.40
2022-09-22T04:33:03.302Z,4.40
2022-09-22T04:35:30.440Z,4.30
2022-09-22T04:37:58.060Z,4.30
2022-09-22T04:40:25.598Z,4.30
2022-09-22T04:42:52.353Z,4.30
2022-09-22T04:45:19.170Z,4.30
2022-09-22T04:47:47.261Z,4.20
2022-09-22T04:50:14.161Z,4.20
2022-09-22T04:52:48.678Z,4.20
2022-09-22T04:55:15.539Z,4.20
2022-09-22T04:57:43.132Z,4.10
2022-09-22T05:00:10.347Z,4.10
2022-09-22T05:02:36.979Z,4.10
2022-09-22T05:05:05.522Z,4.10
2022-09-22T05:07:32.756Z,4.10
2022-09-22T05:09:59.620Z,4.10
2022-09-22T05:12:27.064Z,4.00
2022-09-22T05:14:53.803Z,4.00
2022-09-22T05:17:20.532Z,4.00
2022-09-22T05:19:47.169Z,4.00
2022-09-22T05:22:13.794Z,4.00
2022-09-22T05:24:42.438Z,3.90
2022-09-22T05:27:09.263Z,3.90
2022-09-22T05:29:35.881Z,3.90
2022-09-22T05:32:02.977Z,3.90
2022-09-22T05:34:29.658Z,3.90
2022-09-22T05:36:56.309Z,3.90
2022-09-22T05:39:23.093Z,3.80
2022-09-22T05:41:49.913Z,3.80
2022-09-22T05:44:16.888Z,3.80
2022-09-22T05:46:43.546Z,3.80
2022-09-22T05:49:10.160Z,3.80
2022-09-22T05:51:36.797Z,3.80
2022-09-22T05:54:03.473Z,3.80
2022-09-22T05:56:31.821Z,3.80
2022-09-22T05:58:58.678Z,3.80
2022-09-22T06:01:25.409Z,3.80
2022-09-22T06:03:52.096Z,3.80
2022-09-22T06:06:18.840Z,3.80
2022-09-22T06:08:48.870Z,3.80
2022-09-22T06:11:15.880Z,3.80
2022-09-22T06:13:43.491Z,3.70
2022-09-22T06:16:10.201Z,3.80
2022-09-22T06:18:37.484Z,3.80
2022-09-22T06:21:04.402Z,3.80
2022-09-22T06:23:31.929Z,3.80
2022-09-22T06:25:59.245Z,3.80
2022-09-22T06:28:26.018Z,3.80
2022-09-22T06:30:52.679Z,3.80
2022-09-22T06:33:19.756Z,3.80
2022-09-22T06:35:46.551Z,3.80
2022-09-22T06:38:15.265Z,3.80
2022-09-22T06:40:43.054Z,3.80
2022-09-22T06:43:22.557Z,3.80
2022-09-22T06:45:51.294Z,3.80
2022-09-22T06:48:18.912Z,3.90
2022-09-22T06:50:51.674Z,3.90
2022-09-22T06:53:19.159Z,3.90
2022-09-22T06:55:46.190Z,3.90
2022-09-22T06:58:14.688Z,3.90
2022-09-22T07:00:43.562Z,3.90
2022-09-22T07:03:20.561Z,4.00
2022-09-22T07:05:54.802Z,4.00
2022-09-22T07:08:22.837Z,4.00
2022-09-22T07:10:57.794Z,4.00
2022-09-22T07:13:25.950Z,4.10
2022-09-22T07:15:52.732Z,4.10
2022-09-22T07:18:19.439Z,4.10
2022-09-22T07:20:46.517Z,4.20
2022-09-22T07:23:18.999Z,4.20
2022-09-22T07:25:59.391Z,4.30
2022-09-22T07:28:28.345Z,4.40
2022-09-22T07:31:28.593Z,4.50
2022-09-22T07:33:56.058Z,4.60
2022-09-22T07:36:26.152Z,4.60
2022-09-22T07:38:55.812Z,4.70
2022-09-22T07:41:27.394Z,4.80
2022-09-22T07:44:18.061Z,4.90
2022-09-22T07:46:45.792Z,5.00
2022-09-22T07:49:15.057Z,5.10
2022-09-22T07:51:42.125Z,5.20
2022-09-22T07:54:08.966Z,5.30
2022-09-22T07:56:40.044Z,5.40
2022-09-22T07:59:10.243Z,5.60
2022-09-22T08:01:41.974Z,5.70
2022-09-22T08:04:11.876Z,5.80
2022-09-22T08:06:38.527Z,6.00
2022-09-22T08:09:06.902Z,6.10
2022-09-22T08:11:34.095Z,6.30
2022-09-22T08:14:06.441Z,6.40
2022-09-22T08:16:35.160Z,6.50
2022-09-22T08:19:10.473Z,6.70
2022-09-22T08:21:47.712Z,6.80
2022-09-22T08:24:21.040Z,7.00
2022-09-22T08:26:50.075Z,7.20
2022-09-22T08:29:16.871Z,7.30
2022-09-22T08:31:45.404Z,7.50
2022-09-22T08:34:13.890Z,7.60
2022-09-22T08:36:42.677Z,7.80
2022-09-22T08:39:09.317Z,8.00
2022-09-22T08:42:07.227Z,8.10
2022-09-22T08:44:39.852Z,8.40
2022-09-22T08:47:13.209Z,8.50
2022-09-22T08:50:07.083Z,8.70
2022-09-22T08:52:54.512Z,8.90
2022-09-22T08:55:23.597Z,9.10
2022-09-22T08:58:08.700Z,9.30
2022-09-22T09:00:42.937Z,9.50
2022-09-22T09:03:28.835Z,9.70
2022-09-22T09:06:26.509Z,9.90
2022-09-22T09:09:36.032Z,10.10
2022-09-22T09:12:19.128Z,10.30
2022-09-22T09:15:08.625Z,10.50
2022-09-22T09:17:38.944Z,10.80
2022-09-22T09:20:17.436Z,10.90
2022-09-22T09:22:55.723Z,11.10
2022-09-22T09:25:40.387Z,11.40
2022-09-22T09:28:27.974Z,11.60
2022-09-22T09:31:04.955Z,11.80
2022-09-22T09:34:03.903Z,12.00
2022-09-22T09:36:35.094Z,12.20
2022-09-22T09:39:14.540Z,12.40
2022-09-22T09:41:43.521Z,12.60
2022-09-22T09:44:20.349Z,12.80
2022-09-22T09:47:06.554Z,13.10
2022-09-22T09:49:33.560Z,13.20
2022-09-22T09:52:07.211Z,13.40
2022-09-22T09:54:33.971Z,13.50
2022-09-22T09:57:20.479Z,13.60
2022-09-22T10:00:31.696Z,13.70
2022-09-22T10:03:16.103Z,13.90
2022-09-22T10:05:43.418Z,14.00
2022-09-22T10:08:20.833Z,14.20
2022-09-22T10:10:48.568Z,14.40
2022-09-22T10:13:34.142Z,14.60
2022-09-22T10:16:04.601Z,14.80
2022-09-22T10:18:40.198Z,15.00
2022-09-22T10:21:20.599Z,15.20
2022-09-22T10:23:48.724Z,15.40
2022-09-22T10:26:20.273Z,15.60
2022-09-22T10:29:05.917Z,15.80
2022-09-22T10:31:33.100Z,16.00
2022-09-22T10:34:00.701Z,16.30
2022-09-22T10:36:30.770Z,16.50
2022-09-22T10:38:59.787Z,16.80
2022-09-22T10:41:34.279Z,17.00
2022-09-22T10:47:23.577Z,17.20
2022-09-22T10:50:13.287Z,17.40
2022-09-22T10:52:54.680Z,17.50
2022-09-22T10:55:37.242Z,17.70
2022-09-22T10:58:07.154Z,17.80
2022-09-22T11:00:39.679Z,17.90
2022-09-22T11:03:06.289Z,18.00
2022-09-22T11:06:13.799Z,18.10
2022-09-22T11:09:14.249Z,18.20
2022-09-22T11:12:05.754Z,18.40
2022-09-22T11:15:37.631Z,18.60
2022-09-22T11:18:32.397Z,18.80
2022-09-22T11:21:42.971Z,18.90
2022-09-22T11:24:46.093Z,19.00
2022-09-22T11:27:43.033Z,19.00
2022-09-22T11:30:20.481Z,19.00
2022-09-22T11:33:04.790Z,19.00
2022-09-22T11:35:54.970Z,19.10
2022-09-22T11:38:46.893Z,19.10
2022-09-22T11:41:37.221Z,19.30
2022-09-22T11:44:39.244Z,19.40
2022-09-22T11:47:08.843Z,19.50
2022-09-22T11:49:54.932Z,19.70
2022-09-22T11:52:30.512Z,19.70
2022-09-22T11:55:18.652Z,19.70
2022-09-22T11:57:51.157Z,19.80
2022-09-22T12:00:20.966Z,19.90
2022-09-22T12:03:01.994Z,20.10
2022-09-22T12:05:41.539Z,20.30
2022-09-22T12:08:23.612Z,20.40
2022-09-22T12:10:51.991Z,20.50
2022-09-22T12:13:22.062Z,20.50
2022-09-22T12:16:05.992Z,20.50
2022-09-22T12:18:45.109Z,20.60
2022-09-22T12:21:31.018Z,20.70
2022-09-22T12:24:02.886Z,20.90
2022-09-22T12:26:33.077Z,21.10
2022-09-22T12:29:01.902Z,21.20
2022-09-22T12:31:34.955Z,21.30
2022-09-22T12:34:03.027Z,21.30
2022-09-22T12:36:37.605Z,21.40
2022-09-22T12:39:11.636Z,21.50
2022-09-22T12:41:58.159Z,21.50
2022-09-22T12:44:44.466Z,21.50
2022-09-22T12:47:23.079Z,21.40
2022-09-22T12:49:55.833Z,21.40
2022-09-22T12:52:40.648Z,21.40
2022-09-22T12:55:28.814Z,21.50
2022-09-22T12:57:57.562Z,21.60
2022-09-22T13:00:30.638Z,21.70
2022-09-22T13:03:00.446Z,21.80
2022-09-22T13:05:27.072Z,22.00
2022-09-22T13:07:55.804Z,22.10
2022-09-22T13:10:25.184Z,22.20
2022-09-22T13:13:05.698Z,22.30
2022-09-22T13:15:47.297Z,22.50
2022-09-22T13:18:29.457Z,22.60
2022-09-22T13:20:57.623Z,22.60
2022-09-22T13:23:24.321Z,22.60
2022-09-22T13:25:51.838Z,22.70
2022-09-22T13:28:23.976Z,22.90
2022-09-22T13:31:05.954Z,23.00
2022-09-22T13:33:35.159Z,23.20
2022-09-22T13:36:13.111Z,23.40
2022-09-22T13:38:43.194Z,23.50
2022-09-22T13:41:13.666Z,23.60
2022-09-22T13:43:43.099Z,23.70
2022-09-22T13:46:29.953Z,23.90
2022-09-22T13:48:58.688Z,23.80
2022-09-22T13:51:27.721Z,23.90
2022-09-22T13:53:57.551Z,23.90
2022-09-22T13:56:25.739Z,24.00
2022-09-22T13:58:56.865Z,24.00
2022-09-22T14:01:25.662Z,24.00
2022-09-22T14:03:53.565Z,24.10
2022-09-22T14:06:26.100Z,24.20
2022-09-22T14:08:53.924Z,24.30
2022-09-22T14:11:28.118Z,24.40
2022-09-22T14:13:54.919Z,24.40
2022-09-22T14:16:38.709Z,24.40
2022-09-22T14:19:44.005Z,24.40
2022-09-22T14:22:21.231Z,24.40
2022-09-22T14:24:55.485Z,24.50
2022-09-22T14:27:33.469Z,24.40
2022-09-22T14:30:00.969Z,24.50
2022-09-22T14:32:39.711Z,24.50
2022-09-22T14:35:37.640Z,24.60
2022-09-22T14:38:16.191Z,24.60
2022-09-22T14:40:54.202Z,24.70
2022-09-22T14:43:27.519Z,24.70
2022-09-22T14:46:07.333Z,24.80
2022-09-22T14:48:38.983Z,24.80
2022-09-22T14:51:08.366Z,24.80
2022-09-22T14:53:45.722Z,24.90
2022-09-22T14:56:28.166Z,25.00
2022-09-22T14:58:59.082Z,24.90
2022-09-22T15:01:48.399Z,24.80
2022-09-22T15:04:24.163Z,24.80
2022-09-22T15:06:53.214Z,24.70
2022-09-22T15:09:31.734Z,24.60
2022-09-22T15:12:00.513Z,24.60
2022-09-22T15:14:42.688Z,24.60
2022-09-22T15:17:54.086Z,24.60
2022-09-22T15:20:28.223Z,24.60
2022-09-22T15:22:55.131Z,24.40
2022-09-22T15:25:22.421Z,24.40
2022-09-22T15:27:53.249Z,24.40
2022-09-22T15:30:22.361Z,24.50
2022-09-22T15:32:49.553Z,24.50
2022-09-22T15:35:17.906Z,24.60
2022-09-22T15:37:50.013Z,24.60
2022-09-22T15:40:21.208Z,24.60
2022-09-22T15:43:09.029Z,24.60
2022-09-22T15:45:37.209Z,24.60
2022-09-22T15:48:04.240Z,24.60
2022-09-22T15:50:31.081Z,24.60
2022-09-22T15:52:57.936Z,24.70
2022-09-22T15:55:24.967Z,24.70
2022-09-22T15:57:55.268Z,24.70
2022-09-22T16:00:28.451Z,24.70
2022-09-22T16:02:55.168Z,24.70
2022-09-22T16:05:22.574Z,24.60
2022-09-22T16:07:51.602Z,24.50
2022-09-22T16:10:22.716Z,24.50
2022-09-22T16:12:49.827Z,24.40
2022-09-22T16:15:16.961Z,24.30
2022-09-22T16:17:45.716Z,24.10
2022-09-22T16:20:16.565Z,23.90
2022-09-22T16:22:45.376Z,23.70
2022-09-22T16:25:12.894Z,23.70
2022-09-22T16:27:39.568Z,23.60
2022-09-22T16:30:07.169Z,23.60
2022-09-22T16:32:33.985Z,23.50
2022-09-22T16:35:00.924Z,23.40
2022-09-22T16:37:29.192Z,23.30
2022-09-22T16:39:56.212Z,23.30
2022-09-22T16:42:23.806Z,23.20
2022-09-22T16:44:50.903Z,23.10
2022-09-22T16:47:22.692Z,23.00
2022-09-22T16:49:51.120Z,22.80
2022-09-22T16:52:20.001Z,22.80
2022-09-22T16:54:46.767Z,22.70
2022-09-22T16:57:13.537Z,22.60
2022-09-22T16:59:40.870Z,22.50
2022-09-22T17:02:10.451Z,22.40
2022-09-22T17:04:37.254Z,22.20
2022-09-22T17:07:04.111Z,22.10
2022-09-22T17:09:32.236Z,22.00
2022-09-22T17:11:58.996Z,21.90
2022-09-22T17:14:28.963Z,21.80
2022-09-22T17:16:57.679Z,21.60
2022-09-22T17:19:26.523Z,21.50
2022-09-22T17:21:55.341Z,21.40
2022-09-22T17:24:23.448Z,21.30
2022-09-22T17:26:56.381Z,21.10
2022-09-22T17:29:26.005Z,21.00
2022-09-22T17:31:57.212Z,20.80
2022-09-22T17:34:24.720Z,20.70
2022-09-22T17:36:52.441Z,20.50
2022-09-22T17:39:19.093Z,20.40
2022-09-22T17:41:47.008Z,20.20
2022-09-22T17:44:20.857Z,20.10
2022-09-22T17:47:07.881Z,20.00
2022-09-22T17:49:53.424Z,19.80
2022-09-22T17:52:29.249Z,19.70
2022-09-22T17:55:06.925Z,19.50
2022-09-22T17:57:45.176Z,19.30
2022-09-22T18:00:17.510Z,19.20
2022-09-22T18:02:44.944Z,19.10
2022-09-22T18:05:13.939Z,18.90
2022-09-22T18:07:41.147Z,18.80
2022-09-22T18:10:14.401Z,18.60
2022-09-22T18:12:41.428Z,18.50
2022-09-22T18:15:12.717Z,18.40
2022-09-22T18:17:43.846Z,18.30
2022-09-22T18:20:18.143Z,18.20
2022-09-22T18:22:47.997Z,18.00
2022-09-22T18:25:16.468Z,17.80
2022-09-22T18:27:44.146Z,17.60
2022-09-22T18:30:15.391Z,17.50
2022-09-22T18:32:42.783Z,17.30
2022-09-22T18:35:09.695Z,17.20
2022-09-22T18:37:36.330Z,17.00
2022-09-22T18:40:03.914Z,16.90
2022-09-22T18:42:32.334Z,16.80
2022-09-22T18:44:58.966Z,16.70
2022-09-22T18:47:26.216Z,16.60
2022-09-22T18:49:52.887Z,16.50
2022-09-22T18:52:24.583Z,16.40
2022-09-22T18:54:53.815Z,16.30
2022-09-22T18:57:22.649Z,16.20
2022-09-22T18:59:50.796Z,16.00
2022-09-22T19:02:22.165Z,15.90
2022-09-22T19:04:49.382Z,15.80
2022-09-22T19:07:38.907Z,15.70
2022-09-22T19:10:08.517Z,15.60
2022-09-22T19:12:39.655Z,15.40
2022-09-22T19:15:15.449Z,15.40
2022-09-22T19:17:46.501Z,15.20
2022-09-22T19:20:20.852Z,15.10
2022-09-22T19:22:49.234Z,15.00
2022-09-22T19:25:16.729Z,14.90
2022-09-22T19:27:43.480Z,14.80
2022-09-22T19:30:11.295Z,14.70
2022-09-22T19:32:38.678Z,14.60
2022-09-22T19:35:06.900Z,14.50
2022-09-22T19:37:33.615Z,14.40
2022-09-22T19:40:00.283Z,14.30
2022-09-22T19:42:28.544Z,14.20
2022-09-22T19:44:55.702Z,14.20
2022-09-22T19:47:22.602Z,14.10
2022-09-22T19:49:49.425Z,14.00
2022-09-22T19:52:16.303Z,13.90
2022-09-22T19:54:44.396Z,13.80
2022-09-22T19:57:11.201Z,13.70
2022-09-22T19:59:38.014Z,13.60
2022-09-22T20:02:05.954Z,13.50
2022-09-22T20:04:36.948Z,13.40
2022-09-22T20:07:03.765Z,13.40
2022-09-22T20:09:30.478Z,13.20
2022-09-22T20:11:57.341Z,13.10
2022-09-22T20:14:25.364Z,13.10
2022-09-22T20:16:57.202Z,13.00
2022-09-22T20:19:25.760Z,12.90
2022-09-22T20:21:54.449Z,12.80
2022-09-22T20:24:22.828Z,12.70
2022-09-22T20:26:49.912Z,12.60
2022-09-22T20:29:17.096Z,12.60
2022-09-22T20:31:44.126Z,12.50
2022-09-22T20:34:14.929Z,12.40
2022-09-22T20:36:43.210Z,12.30
2022-09-22T20:39:15.085Z,12.30
2022-09-22T20:41:43.046Z,12.20
2022-09-22T20:44:14.790Z,12.10
2022-09-22T20:46:42.958Z,12.00
2022-09-22T20:49:13.376Z,12.00
2022-09-22T20:51:41.482Z,11.90
2022-09-22T20:54:09.002Z,11.80
2022-09-22T20:56:39.406Z,11.70
2022-09-22T20:59:08.878Z,11.60
2022-09-22T21:01:35.661Z,11.60
2022-09-22T21:04:02.363Z,11.50
2022-09-22T21:06:30.853Z,11.40
2022-09-22T21:09:16.574Z,11.40
2022-09-22T21:11:43.988Z,11.30
2022-09-22T21:14:11.188Z,11.20
2022-09-22T21:16:39.864Z,11.10
2022-09-22T21:19:08.219Z,11.10
2022-09-22T21:21:39.021Z,11.10
2022-09-22T21:24:06.007Z,11.00
2022-09-22T21:26:33.155Z,10.90
2022-09-22T21:29:00.035Z,10.90
2022-09-22T21:31:27.734Z,10.80
2022-09-22T21:33:54.644Z,10.70
2022-09-22T21:36:22.782Z,10.70
2022-09-22T21:38:55.514Z,10.60
2022-09-22T21:41:24.181Z,10.60
2022-09-22T21:43:51.313Z,10.50
2022-09-22T21:46:23.836Z,10.40
2022-09-22T21:48:50.720Z,10.30
2022-09-22T21:51:20.507Z,10.30
2022-09-22T21:53:50.490Z,10.20
2022-09-22T21:56:18.369Z,10.20
2022-09-22T21:58:47.875Z,10.10
2022-09-22T22:01:21.948Z,10.00
2022-09-22T22:03:50.759Z,9.90
2022-09-22T22:06:26.169Z,9.90
2022-09-22T22:09:00.454Z,9.80
2022-09-22T22:11:39.072Z,9.70
2022-09-22T22:14:11.065Z,9.70
2022-09-22T22:16:46.023Z,9.60
2022-09-22T22:19:15.013Z,9.60
2022-09-22T22:21:42.850Z,9.50
2022-09-22T22:24:17.881Z,9.50
2022-09-22T22:26:47.025Z,9.40
2022-09-22T22:29:14.396Z,9.40
2022-09-22T22:31:42.059Z,9.30
2022-09-22T22:34:10.326Z,9.30
2022-09-22T22:36:36.997Z,9.20
2022-09-22T22:39:04.295Z,9.10
2022-09-22T22:41:31.029Z,9.10
2022-09-22T22:43:58.067Z,9.10
2022-09-22T22:46:24.904Z,9.00
2022-09-22T22:48:51.572Z,8.90
2022-09-22T22:51:22.999Z,8.90
2022-09-22T22:53:50.721Z,8.90
2022-09-22T22:56:22.669Z,8.80
2022-09-22T22:58:50.668Z,8.80
2022-09-22T23:01:23.179Z,8.80
2022-09-22T23:04:04.856Z,8.70
2022-09-22T23:06:34.477Z,8.60
2022-09-22T23:09:01.600Z,8.60
2022-09-22T23:11:30.565Z,8.50
2022-09-22T23:14:01.929Z,8.50
2022-09-22T23:16:31.028Z,8.40
2022-09-22T23:19:01.266Z,8.40
2022-09-22T23:21:30.263Z,8.30
2022-09-22T23:23:57.260Z,8.30
2022-09-22T23:26:24.045Z,8.20
2022-09-22T23:28:52.556Z,8.20
2022-09-22T23:31:21.459Z,8.10
2022-09-22T23:33:50.371Z,8.10
2022-09-22T23:36:22.749Z,8.10
2022-09-22T23:38:56.905Z,8.10
2022-09-22T23:41:23.682Z,8.00
2022-09-22T23:43:50.492Z,8.00
2022-09-22T23:46:17.467Z,7.90
2022-09-22T23:48:44.182Z,7.90
2022-09-22T23:51:10.840Z,7.80
2022-09-22T23:53:38.827Z,7.70
2022-09-22T23:56:06.754Z,7.70
2022-09-22T23:58:34.582Z,7.60
